Terminal Aerodrome Forecast
Issued by NWS

Home | Current Version | Previous Version | Text Only | Print | Product List | Glossary On
Versions: 1 2 3 4 5 6 7 8 9 10 11 12 13 14 15
000
FTUS43 KJKL 261947 AAA
TAFSME
TAF AMD
KSME 261947Z 2620/2718 34010G18KT 6SM -RA OVC010
     FM270300 35006KT 6SM -RA SCT007 BKN010
     FM270800 01005KT 6SM BR SCT007 SCT010
     FM271300 36006KT P6SM BKN025=

USA.gov is the U.S. government's official web portal to all federal, state and local government web resources and services.